tititudorancea.com
Station Historical Data
Daily Summary for February 19, 2019 Units:  Metric    English   Both
« Previous Day
Next Day »
Daily Weekly Monthly Yearly Custom
  High: Low: Average:
Temperature: -17.8 °C 9.7 °C 13.4 °C
Dew Point: -17.8 °C 5.7 °C 7.4 °C
Humidity: Humidity % 41 % 69 %
Wind Speed: 0 km/h 0 km/h 9.8 km/h
Wind Gust: 0 km/h - -
Wind:- - SSW
Pressure: 0 hPa 1009 hPa -
Precipitation: 0 mm    
Historical Graphs
 
 
Ararat weather Find more about Weather in Ararat, AU


 



 


Tabular Data for February 19, 2019
Time Temperature Dew Point Pressure Wind Wind Speed Wind Gust Humidity Rainfall Rate (Hourly)
-17.8 °C -17.8 °C 0 hPa Calm     Humidity % 0 mm
00:00 14 °C 8.2 °C 1009 hPa South 8 km/h 12.9 km/h 68 % 0 mm
00:04 11.6 °C 7.3 °C 1009.7 hPa South 12.9 km/h 8.7 km/h 75 % 0 mm
00:05 13.9 °C 8.1 °C 1009 hPa South 1.6 km/h 9.7 km/h 68 % 0 mm
00:09 11.9 °C 7.4 °C 1009.7 hPa South 9.3 km/h 7.6 km/h 74 % 0 mm
00:10 13.8 °C 7.9 °C 1009 hPa South 1.6 km/h 8 km/h 68 % 0 mm
00:14 11.9 °C 7.4 °C 1009.7 hPa South 11.1 km/h 3.7 km/h 74 % 0 mm
00:15 13.7 °C 8.1 °C 1009 hPa South 4.8 km/h 8 km/h 69 % 0 mm
00:19 12 °C 7.5 °C 1009.7 hPa South 11.1 km/h 8.2 km/h 74 % 0 mm
00:20 13.6 °C 8 °C 1009.4 hPa South 1.6 km/h 6.4 km/h 69 % 0 mm
00:24 12 °C 7.3 °C 1009.7 hPa South 6.4 km/h 8.2 km/h 73 % 0 mm
00:25 13.4 °C 7.9 °C 1009.4 hPa South 4.8 km/h 8 km/h 69 % 0 mm
00:29 12 °C 7.5 °C 1009.7 hPa South 13 km/h 10.3 km/h 74 % 0 mm
00:30 13.3 °C 7.9 °C 1009.4 hPa South 1.6 km/h 6.4 km/h 70 % 0 mm
00:34 12 °C 7.3 °C 1009.7 hPa South 5.6 km/h 3.2 km/h 73 % 0 mm
00:35 13.2 °C 7.8 °C 1009.4 hPa South 3.2 km/h 4.8 km/h 70 % 0 mm
00:39 11.9 °C 7.2 °C 1009.7 hPa South 7.4 km/h 2.3 km/h 73 % 0 mm
00:40 13 °C 7.7 °C 1009.4 hPa South 1.6 km/h 6.4 km/h 70 % 0 mm
00:44 11.8 °C 7.3 °C 1009.7 hPa South 11.1 km/h 3.9 km/h 74 % 0 mm
00:45 12.9 °C 7.8 °C 1009.4 hPa Calm   6.4 km/h 71 % 0 mm
00:49 11.7 °C 7.2 °C 1009.7 hPa South 6.4 km/h 5 km/h 74 % 0 mm
00:50 12.8 °C 7.7 °C 1009.4 hPa South 3.2 km/h 8 km/h 71 % 0 mm
00:54 11.7 °C 7.4 °C 1009.7 hPa South 9.3 km/h 6 km/h 75 % 0 mm
00:55 12.7 °C 7.6 °C 1009.4 hPa South 1.6 km/h 4.8 km/h 71 % 0 mm
00:59 11.6 °C 7.3 °C 1009.7 hPa South 8 km/h 4 km/h 75 % 0 mm
01:00 12.6 °C 7.7 °C 1009.4 hPa South 1.6 km/h 4.8 km/h 72 % 0 mm
01:04 11.6 °C 7.3 °C 1009.7 hPa South 5.6 km/h 3.4 km/h 75 % 0 mm
01:05 12.4 °C 7.6 °C 1009.4 hPa Calm   4.8 km/h 72 % 0 mm
01:09 11.5 °C 7.2 °C 1009.7 hPa South 3.7 km/h 1.9 km/h 75 % 0 mm
01:10 12.3 °C 7.4 °C 1009.4 hPa South 1.6 km/h 4.8 km/h 72 % 0 mm
01:14 11.4 °C 7.3 °C 1009.7 hPa South 7.4 km/h 4 km/h 76 % 0 mm
01:15 12.2 °C 7.3 °C 1009.4 hPa South 1.6 km/h 4.8 km/h 72 % 0 mm
01:19 11.4 °C 7.3 °C 1009.7 hPa South 5.6 km/h 3.2 km/h 76 % 0 mm
01:20 12.1 °C 7.2 °C 1009.4 hPa Calm   3.2 km/h 72 % 0 mm
01:24 11.4 °C 7.3 °C 1009.7 hPa South 11.1 km/h 7.4 km/h 76 % 0 mm
01:25 11.9 °C 7.3 °C 1009.4 hPa South 1.6 km/h 3.2 km/h 73 % 0 mm
01:29 11.4 °C 7.6 °C 1009.7 hPa South 13 km/h 7.7 km/h 77 % 0 mm
01:30 11.8 °C 7.1 °C 1009.4 hPa South 3.2 km/h 4.8 km/h 73 % 0 mm
01:34 11.4 °C 7.5 °C 1009.7 hPa South 9.3 km/h 6 km/h 77 % 0 mm
01:35 11.7 °C 7.2 °C 1009.4 hPa South 3.2 km/h 4.8 km/h 74 % 0 mm
01:39 11.4 °C 7.6 °C 1009.7 hPa South 9.3 km/h 7.2 km/h 77 % 0 mm
01:40 11.6 °C 7.1 °C 1009.4 hPa South 1.6 km/h 4.8 km/h 74 % 0 mm
01:44 11.4 °C 7.7 °C 1009.7 hPa South 11.1 km/h 9.8 km/h 78 % 0 mm
01:45 11.6 °C 7.1 °C 1009.4 hPa South 1.6 km/h 4.8 km/h 74 % 0 mm
01:49 11.5 °C 7.8 °C 1009.7 hPa South 5.6 km/h 4 km/h 78 % 0 mm
01:50 11.5 °C 7.2 °C 1009.4 hPa South 3.2 km/h 4.8 km/h 75 % 0 mm
01:54 11.4 °C 7.7 °C 1009.7 hPa South 6.4 km/h 3.9 km/h 78 % 0 mm
01:55 11.4 °C 7.2 °C 1009.7 hPa South 4.8 km/h 6.4 km/h 75 % 0 mm
01:59 11.3 °C 7.6 °C 1010 hPa South 5.6 km/h 2.7 km/h 78 % 0 mm
02:00 11.4 °C 7.2 °C 1009.7 hPa South 8 km/h 11.3 km/h 75 % 0 mm
02:04 11.2 °C 7.5 °C 1009.7 hPa South 6.4 km/h 3.4 km/h 78 % 0 mm
02:05 11.5 °C 7.2 °C 1009.7 hPa South 4.8 km/h 11.3 km/h 75 % 0 mm
02:09 11.2 °C 7.7 °C 1009.7 hPa South 6.4 km/h 3.7 km/h 79 % 0 mm
02:10 11.7 °C 7.4 °C 1009.7 hPa South 9.7 km/h 14.5 km/h 75 % 0 mm
02:14 11.1 °C 7.6 °C 1009.7 hPa South 11.3 km/h 6.3 km/h 79 % 0 mm
02:15 11.9 °C 7.4 °C 1009.7 hPa South 4.8 km/h 11.3 km/h 74 % 0 mm
02:19 11.1 °C 7.6 °C 1010 hPa South 7.4 km/h 7.2 km/h 79 % 0 mm
02:20 11.9 °C 7.4 °C 1009.7 hPa South 8 km/h 12.9 km/h 74 % 0 mm
02:24 11.1 °C 7.6 °C 1009.7 hPa South 4.8 km/h 4.7 km/h 79 % 0 mm
02:25 12 °C 7.3 °C 1009.7 hPa South 9.7 km/h 12.9 km/h 73 % 0 mm
02:29 11 °C 7.7 °C 1009.7 hPa South 16.7 km/h 7.4 km/h 80 % 0 mm
02:30 12 °C 7.3 °C 1009.7 hPa South 4.8 km/h 11.3 km/h 73 % 0 mm
02:34 10.9 °C 7.6 °C 1009.7 hPa South 9.7 km/h 5.5 km/h 80 % 0 mm
02:35 12 °C 7.3 °C 1009.7 hPa South 8 km/h 12.9 km/h 73 % 0 mm
02:39 10.9 °C 7.6 °C 1009.7 hPa South 5.6 km/h 2.4 km/h 80 % 0 mm
02:40 12 °C 7.3 °C 1009.7 hPa South 4.8 km/h 11.3 km/h 73 % 0 mm
02:44 10.8 °C 7.4 °C 1009.7 hPa South 5.6 km/h 3.9 km/h 80 % 0 mm
02:45 11.8 °C 7.2 °C 1009.7 hPa South 4.8 km/h 8 km/h 73 % 0 mm
02:49 10.7 °C 7.6 °C 1009.7 hPa South 11.1 km/h 8.9 km/h 81 % 0 mm
02:50 11.8 °C 7.3 °C 1009.7 hPa South 1.6 km/h 11.3 km/h 74 % 0 mm
02:54 10.7 °C 7.6 °C 1009.7 hPa South 8 km/h 5.3 km/h 81 % 0 mm
02:55 11.7 °C 7.2 °C 1009.7 hPa South 3.2 km/h 8 km/h 74 % 0 mm
02:59 10.8 °C 7.8 °C 1009.7 hPa South 8 km/h 8.2 km/h 82 % 0 mm
03:00 11.7 °C 7.4 °C 1009.7 hPa South 4.8 km/h 12.9 km/h 75 % 0 mm
03:04 10.9 °C 8 °C 1009.7 hPa South 9.3 km/h 5.6 km/h 82 % 0 mm
03:05 11.6 °C 7.3 °C 1009.7 hPa South 4.8 km/h 12.9 km/h 75 % 0 mm
03:09 10.9 °C 7.8 °C 1009.7 hPa South 3.7 km/h 2.4 km/h 81 % 0 mm
03:10 11.5 °C 7.2 °C 1009.7 hPa South 3.2 km/h 11.3 km/h 75 % 0 mm
03:14 10.8 °C 7.9 °C 1009.7 hPa South 5.6 km/h 3.2 km/h 82 % 0 mm
03:15 11.4 °C 7.2 °C 1009.7 hPa South 3.2 km/h 8 km/h 75 % 0 mm
03:19 10.8 °C 7.8 °C 1009.7 hPa South 5.6 km/h 1.8 km/h 82 % 0 mm
03:20 11.4 °C 7.3 °C 1009.7 hPa Calm   8 km/h 76 % 0 mm
03:24 10.7 °C 7.8 °C 1009.7 hPa South 5.6 km/h 2.9 km/h 82 % 0 mm
03:25 11.4 °C 7.3 °C 1009.7 hPa South 3.2 km/h 11.3 km/h 76 % 0 mm
03:29 10.6 °C 7.7 °C 1009.7 hPa South 3.7 km/h 2.4 km/h 82 % 0 mm
03:30 11.4 °C 7.3 °C 1009.7 hPa South 4.8 km/h 11.3 km/h 76 % 0 mm
03:34 10.6 °C 7.8 °C 1009.7 hPa South 5.6 km/h 6 km/h 83 % 0 mm
03:35 11.4 °C 7.6 °C 1009.7 hPa South 4.8 km/h 12.9 km/h 77 % 0 mm
03:39 10.7 °C 7.9 °C 1009.7 hPa South 7.4 km/h 3.7 km/h 83 % 0 mm
03:40 11.4 °C 7.6 °C 1009.7 hPa South 4.8 km/h 12.9 km/h 77 % 0 mm
03:44 10.7 °C 7.9 °C 1009.7 hPa South 11.1 km/h 5.3 km/h 83 % 0 mm
03:45 11.4 °C 7.6 °C 1009.7 hPa South 3.2 km/h 14.5 km/h 77 % 0 mm
03:49 10.7 °C 7.9 °C 1009.7 hPa South 8 km/h 6.1 km/h 83 % 0 mm
03:50 11.4 °C 7.7 °C 1009.7 hPa South 4.8 km/h 12.9 km/h 78 % 0 mm
03:54 10.8 °C 8.2 °C 1010 hPa South 13 km/h 8.7 km/h 84 % 0 mm
03:55 11.4 °C 7.7 °C 1009.7 hPa Calm   12.9 km/h 78 % 0 mm
03:59 10.8 °C 8.2 °C 1010 hPa South 11.1 km/h 8 km/h 84 % 0 mm
04:00 11.4 °C 7.7 °C 1009.7 hPa South 4.8 km/h 9.7 km/h 78 % 0 mm
04:04 10.8 °C 8.2 °C 1010 hPa South 11.1 km/h 7.7 km/h 84 % 0 mm
04:05 11.3 °C 7.6 °C 1010 hPa Calm   6.4 km/h 78 % 0 mm
04:09 10.9 °C 8.3 °C 1010 hPa South 14.8 km/h 8.7 km/h 84 % 0 mm
04:10 11.2 °C 7.7 °C 1010 hPa South 8 km/h 12.9 km/h 79 % 0 mm
04:14 10.9 °C 8.3 °C 1010 hPa South 7.4 km/h 3.4 km/h 84 % 0 mm
04:15 11.2 °C 7.7 °C 1010 hPa South 4.8 km/h 11.3 km/h 79 % 0 mm
04:19 10.9 °C 8.3 °C 1010 hPa SSW 9.3 km/h 3.5 km/h 84 % 0 mm
04:20 11.1 °C 7.6 °C 1010 hPa South 8 km/h 12.9 km/h 79 % 0 mm
04:24 10.9 °C 8.3 °C 1010 hPa SSW 9.3 km/h 7.4 km/h 84 % 0 mm
04:25 11.1 °C 7.6 °C 1009.7 hPa South 3.2 km/h 12.9 km/h 79 % 0 mm
04:29 10.9 °C 8.3 °C 1010 hPa SSW 5.6 km/h 4.2 km/h 84 % 0 mm
04:30 11 °C 7.5 °C 1009.7 hPa South 4.8 km/h 8 km/h 79 % 0 mm
04:34 10.9 °C 8.2 °C 1010 hPa SSW 7.4 km/h 5.5 km/h 83 % 0 mm
04:35 11 °C 7.7 °C 1009.7 hPa South 4.8 km/h 16.1 km/h 80 % 0 mm
04:39 10.9 °C 8.1 °C 1010 hPa SSW 5.6 km/h 1.1 km/h 83 % 0 mm
04:40 10.9 °C 7.6 °C 1009.7 hPa South 4.8 km/h 9.7 km/h 80 % 0 mm
04:44 10.8 °C 8 °C 1010 hPa SSW 3.7 km/h 2.1 km/h 83 % 0 mm
04:45 10.9 °C 7.6 °C 1009.7 hPa South 4.8 km/h 8 km/h 80 % 0 mm
04:49 10.6 °C 7.8 °C 1010 hPa SSW 3.7 km/h 2.4 km/h 83 % 0 mm
04:50 10.8 °C 7.4 °C 1009.7 hPa South 1.6 km/h 6.4 km/h 80 % 0 mm
04:54 10.4 °C 7.8 °C 1010 hPa North 3.7 km/h 3.4 km/h 84 % 0 mm
04:55 10.7 °C 7.6 °C 1009.7 hPa South 4.8 km/h 11.3 km/h 81 % 0 mm
04:59 10.3 °C 7.7 °C 1010 hPa SSW 3.7 km/h 0.2 km/h 84 % 0 mm
05:00 10.7 °C 7.8 °C 1009.7 hPa South 8 km/h 11.3 km/h 82 % 0 mm
05:04 10.1 °C 7.6 °C 1010 hPa SSW 4.8 km/h 1.3 km/h 84 % 0 mm
05:05 10.8 °C 7.9 °C 1009.7 hPa South 11.3 km/h 20.9 km/h 82 % 0 mm
05:09 10.1 °C 7.5 °C 1010 hPa Calm     84 % 0 mm
05:10 10.9 °C 8 °C 1009.7 hPa South 1.6 km/h 20.9 km/h 82 % 0 mm
05:14 10 °C 7.6 °C 1010 hPa SSW 1.6 km/h 1.1 km/h 85 % 0 mm
05:15 10.9 °C 7.8 °C 1009.7 hPa South 1.6 km/h 4.8 km/h 81 % 0 mm
05:19 9.9 °C 8.2 °C 1010 hPa SSW 3.7 km/h 3.2 km/h 89 % 0 mm
05:20 10.8 °C 7.9 °C 1009.7 hPa South 3.2 km/h 8 km/h 82 % 0 mm
05:24 9.9 °C 7.6 °C 1010.4 hPa SSW 5.6 km/h 3.9 km/h 85 % 0 mm
05:25 10.8 °C 7.8 °C 1009.7 hPa South 3.2 km/h 6.4 km/h 82 % 0 mm
05:29 9.8 °C 7.4 °C 1010.4 hPa SSW 3.2 km/h 0.2 km/h 85 % 0 mm
05:30 10.7 °C 7.7 °C 1009.7 hPa South 1.6 km/h 6.4 km/h 82 % 0 mm
05:34 9.7 °C 7.5 °C 1010.4 hPa SSW 5.6 km/h 3.2 km/h 86 % 0 mm
05:35 10.6 °C 7.8 °C 1009.7 hPa South 4.8 km/h 8 km/h 83 % 0 mm
05:39 9.7 °C 7.4 °C 1010.4 hPa SSW 5.6 km/h 1.9 km/h 86 % 0 mm
05:40 10.6 °C 7.8 °C 1009.7 hPa South 4.8 km/h 8 km/h 83 % 0 mm
05:44 9.7 °C 7.4 °C 1010 hPa SSW 6.4 km/h 2.9 km/h 86 % 0 mm
05:45 10.7 °C 7.9 °C 1009.7 hPa South 3.2 km/h 8 km/h 83 % 0 mm
05:49 9.8 °C 7.8 °C 1010.4 hPa SSW 11.1 km/h 7.1 km/h 87 % 0 mm
05:50 10.7 °C 7.9 °C 1010 hPa South 3.2 km/h 11.3 km/h 83 % 0 mm
05:54 10.2 °C 8.1 °C 1010.4 hPa SSW 13 km/h 6.6 km/h 87 % 0 mm
05:55 10.7 °C 8.1 °C 1009.7 hPa South 8 km/h 11.3 km/h 84 % 0 mm
05:59 10.3 °C 8.1 °C 1010.4 hPa SSW 11.1 km/h 3.4 km/h 86 % 0 mm
06:00 10.8 °C 8.2 °C 1009.7 hPa South 4.8 km/h 12.9 km/h 84 % 0 mm
06:04 10.4 °C 8.1 °C 1010.4 hPa SSW 9.3 km/h 5.1 km/h 85 % 0 mm
06:05 10.8 °C 8.2 °C 1010 hPa South 4.8 km/h 11.3 km/h 84 % 0 mm
06:09 10.4 °C 8.1 °C 1010.4 hPa SSW 5.6 km/h   85 % 0 mm
06:10 10.8 °C 8.2 °C 1010 hPa South 4.8 km/h 11.3 km/h 84 % 0 mm
06:14 10.5 °C 7.9 °C 1010.4 hPa SSW 7.4 km/h 1.6 km/h 84 % 0 mm
06:15 10.9 °C 8.3 °C 1010 hPa South 4.8 km/h 14.5 km/h 84 % 0 mm
06:19 10.5 °C 7.9 °C 1010.4 hPa SSW 9.3 km/h 4.5 km/h 84 % 0 mm
06:20 10.9 °C 8.3 °C 1010 hPa South 11.3 km/h 14.5 km/h 84 % 0 mm
06:24 10.6 °C 8 °C 1010.4 hPa SSW 9.3 km/h 7.2 km/h 84 % 0 mm
06:25 10.9 °C 8.3 °C 1010 hPa SSW 4.8 km/h 17.7 km/h 84 % 0 mm
06:29 10.7 °C 8.1 °C 1010.4 hPa SSW 12.9 km/h 7.1 km/h 84 % 0 mm
06:30 10.9 °C 8.3 °C 1010 hPa SSW 8 km/h 9.7 km/h 84 % 0 mm
06:34 10.7 °C 7.9 °C 1010.4 hPa SSW 11.1 km/h 7.9 km/h 83 % 0 mm
06:35 10.9 °C 8.3 °C 1010 hPa SSW 3.2 km/h 9.7 km/h 84 % 0 mm
06:39 10.8 °C 8 °C 1010.4 hPa SSW 9.3 km/h 7.1 km/h 83 % 0 mm
06:40 10.9 °C 8.2 °C 1010 hPa SSW 1.6 km/h 8 km/h 83 % 0 mm
06:44 10.8 °C 8.1 °C 1010.4 hPa SSW 13 km/h 6.3 km/h 83 % 0 mm
06:45 10.8 °C 8.1 °C 1010 hPa SSW 1.6 km/h 12.9 km/h 83 % 0 mm
06:49 10.8 °C 8.1 °C 1010.4 hPa SSW 6.4 km/h 5.5 km/h 83 % 0 mm
06:50 10.7 °C 8.1 °C 1010 hPa SSW 1.6 km/h 8 km/h 84 % 0 mm
06:54 10.8 °C 8.1 °C 1010.4 hPa SSW 14.8 km/h 6.8 km/h 83 % 0 mm
06:55 10.6 °C 7.8 °C 1010 hPa SSW 1.6 km/h 4.8 km/h 83 % 0 mm
06:59 10.8 °C 8 °C 1010.4 hPa SSW 1.9 km/h 1 km/h 83 % 0 mm
07:00 10.4 °C 7.8 °C 1010 hPa SSW 3.2 km/h 6.4 km/h 84 % 0 mm
07:04 10.7 °C 7.9 °C 1010.7 hPa Calm     83 % 0 mm
07:05 10.2 °C 7.6 °C 1010 hPa SSW 1.6 km/h 6.4 km/h 84 % 0 mm
07:09 10.6 °C 7.8 °C 1010.7 hPa Calm     83 % 0 mm
07:10 10.1 °C 7.7 °C 1010 hPa SSW 3.2 km/h 6.4 km/h 85 % 0 mm
07:14 10.5 °C 7.7 °C 1010.7 hPa Calm     83 % 0 mm
07:15 10.1 °C 7.7 °C 1010 hPa SSW 3.2 km/h 4.8 km/h 85 % 0 mm
07:19 10.3 °C 7.5 °C 1010.7 hPa SSW 1.6 km/h 1.3 km/h 83 % 0 mm
07:20 10 °C 7.6 °C 1010 hPa SSW 8 km/h 12.9 km/h 85 % 0 mm
07:24 10.1 °C 7.3 °C 1010.7 hPa SSW 1.9 km/h 0.3 km/h 83 % 0 mm
07:25 9.9 °C 8.2 °C 1010 hPa SSW 3.2 km/h 8 km/h 89 % 0 mm
07:29 9.9 °C 7.3 °C 1010.7 hPa Calm   0.3 km/h 84 % 0 mm
07:30 9.9 °C 7.7 °C 1010 hPa SSW 1.6 km/h 11.3 km/h 86 % 0 mm
07:34 9.8 °C 7.4 °C 1010.7 hPa SSW 9.3 km/h 3.1 km/h 85 % 0 mm
07:35 9.8 °C 7.4 °C 1010.4 hPa SSW 1.6 km/h 4.8 km/h 85 % 0 mm
07:39 9.8 °C 7.4 °C 1011.1 hPa SSW 5.6 km/h 4.5 km/h 85 % 0 mm
07:40 9.7 °C 7.5 °C 1010.4 hPa SSW 3.2 km/h 6.4 km/h 86 % 0 mm
07:44 9.8 °C 7.6 °C 1011.1 hPa SSW 5.6 km/h 2.4 km/h 86 % 0 mm
07:45 9.7 °C 7.4 °C 1010.4 hPa SSW 3.2 km/h 4.8 km/h 86 % 0 mm
07:49 9.9 °C 7.7 °C 1011.1 hPa SSW 5.6 km/h 2.4 km/h 86 % 0 mm
07:50 9.7 °C 7.7 °C 1010.4 hPa SSW 1.6 km/h 8 km/h 87 % 0 mm
07:54 10 °C 7.8 °C 1011.1 hPa SSW 5.6 km/h 3.2 km/h 86 % 0 mm
07:55 9.9 °C 7.9 °C 1010.4 hPa SSW 9.7 km/h 12.9 km/h 87 % 0 mm
07:59 10.2 °C 8.2 °C 1011.1 hPa SSW 3.7 km/h 1.6 km/h 87 % 0 mm
08:00 10.2 °C 8.2 °C 1010.4 hPa SSW 3.2 km/h 12.9 km/h 87 % 0 mm
08:04 10.5 °C 8.3 °C 1011.1 hPa SSW 5.6 km/h 2.7 km/h 86 % 0 mm
08:05 10.3 °C 8.1 °C 1010.4 hPa SSW 4.8 km/h 11.3 km/h 86 % 0 mm
08:09 10.8 °C 8.6 °C 1011.1 hPa SSW 5.6 km/h 4.3 km/h 86 % 0 mm
08:10 10.4 °C 8.1 °C 1010.4 hPa SSW 4.8 km/h 11.3 km/h 85 % 0 mm
08:14 11 °C 8.4 °C 1011.4 hPa SSW 6.4 km/h 5.5 km/h 84 % 0 mm
08:15 10.4 °C 7.8 °C 1010.4 hPa SSW 1.6 km/h 8 km/h 84 % 0 mm
08:19 11.2 °C 8.4 °C 1011.1 hPa SSW 6.4 km/h 4.3 km/h 83 % 0 mm
08:20 10.4 °C 7.8 °C 1010.4 hPa SSW 3.2 km/h 9.7 km/h 84 % 0 mm
08:24 11.4 °C 8.5 °C 1011.4 hPa SSW 7.4 km/h 8 km/h 82 % 0 mm
08:25 10.6 °C 7.9 °C 1010.4 hPa SSW 9.7 km/h 14.5 km/h 84 % 0 mm
08:29 11.7 °C 8.5 °C 1011.4 hPa SSW 11.1 km/h 9 km/h 81 % 0 mm
08:30 10.6 °C 8 °C 1010.4 hPa SSW 9.7 km/h 14.5 km/h 84 % 0 mm
08:34 11.8 °C 8.5 °C 1011.4 hPa SSW 11.1 km/h 5.3 km/h 80 % 0 mm
08:35 10.7 °C 8.1 °C 1010.4 hPa SSW 8 km/h 17.7 km/h 84 % 0 mm
08:39 11.9 °C 8.6 °C 1011.4 hPa SSW 5.6 km/h 4.3 km/h 80 % 0 mm
08:40 10.7 °C 7.9 °C 1010.4 hPa SSW 8 km/h 12.9 km/h 83 % 0 mm
08:44 12.2 °C 8.8 °C 1011.7 hPa SSW 5.6 km/h 5.6 km/h 80 % 0 mm
08:45 10.8 °C 8 °C 1010.4 hPa SSW 8 km/h 16.1 km/h 83 % 0 mm
08:49 12.4 °C 8.8 °C 1011.7 hPa SSW 6.4 km/h 3.4 km/h 79 % 0 mm
08:50 10.8 °C 8.1 °C 1010.4 hPa SSW 4.8 km/h 12.9 km/h 83 % 0 mm
08:54 12.7 °C 8.9 °C 1011.7 hPa SSW 11.1 km/h 6.1 km/h 78 % 0 mm
08:55 10.8 °C 8.1 °C 1010.4 hPa SSW 4.8 km/h 8 km/h 83 % 0 mm
08:59 12.9 °C 9.2 °C 1011.7 hPa SSW 6.4 km/h 4.7 km/h 78 % 0 mm
09:00 10.8 °C 8.1 °C 1010.4 hPa SSW 4.8 km/h 14.5 km/h 83 % 0 mm
09:04 13.1 °C 9 °C 1011.7 hPa SSW 11.3 km/h 9.3 km/h 76 % 0 mm
09:05 10.8 °C 8 °C 1010.4 hPa Calm   8 km/h 83 % 0 mm
09:09 13.2 °C 8.6 °C 1011.7 hPa SSW 7.4 km/h 4.2 km/h 74 % 0 mm
09:10 10.7 °C 7.9 °C 1010.7 hPa SSW 3.2 km/h 4.8 km/h 83 % 0 mm
09:14 13.3 °C 8.6 °C 1011.7 hPa SW 16.7 km/h 7.6 km/h 73 % 0 mm
09:15 10.6 °C 7.8 °C 1010.7 hPa Calm   3.2 km/h 83 % 0 mm
09:19 13.5 °C 8.3 °C 1011.7 hPa SW 22.2 km/h 11.9 km/h 71 % 0 mm
09:20 10.4 °C 7.7 °C 1010.7 hPa Calm   1.6 km/h 83 % 0 mm
09:24 13.7 °C 8.5 °C 1011.7 hPa SSW 16.7 km/h 10.3 km/h 71 % 0 mm
09:25 10.2 °C 7.4 °C 1010.7 hPa Calm   3.2 km/h 83 % 0 mm
09:29 13.7 °C 8.3 °C 1011.7 hPa SSW 18.5 km/h 9 km/h 70 % 0 mm
09:30 10 °C 7.2 °C 1010.7 hPa Calm   3.2 km/h 83 % 0 mm
09:34 13.8 °C 8.7 °C 1011.7 hPa SSW 14.8 km/h 6.6 km/h 71 % 0 mm
09:35 9.9 °C 7.3 °C 1010.7 hPa Calm   1.6 km/h 84 % 0 mm
09:39 14.3 °C 8.7 °C 1011.7 hPa SW 18.5 km/h 11.4 km/h 69 % 0 mm
09:40 9.8 °C 7.4 °C 1010.7 hPa SSW 3.2 km/h 9.7 km/h 85 % 0 mm
09:44 14.3 °C 8.4 °C 1011.7 hPa SSW 12.9 km/h 10.3 km/h 68 % 0 mm
09:45 9.8 °C 7.4 °C 1011.1 hPa SSW 4.8 km/h 8 km/h 85 % 0 mm
09:49 14.5 °C 8.4 °C 1011.7 hPa SW 22.5 km/h 13.8 km/h 67 % 0 mm
09:50 9.8 °C 7.6 °C 1011.1 hPa SSW 4.8 km/h 9.7 km/h 86 % 0 mm
09:54 14.6 °C 8.6 °C 1011.7 hPa SW 9.3 km/h 5.8 km/h 67 % 0 mm
09:55 9.9 °C 7.7 °C 1011.1 hPa SSW 1.6 km/h 6.4 km/h 86 % 0 mm
09:59 14.7 °C 8.2 °C 1012.1 hPa SW 24.1 km/h 22.5 km/h 65 % 0 mm
10:00 10 °C 7.8 °C 1011.1 hPa SSW 1.6 km/h 6.4 km/h 86 % 0 mm
10:04 14.4 °C 7.9 °C 1012.1 hPa WSW 13 km/h 9.2 km/h 65 % 0 mm
10:05 10.3 °C 8.2 °C 1011.1 hPa SSW 1.6 km/h 4.8 km/h 87 % 0 mm
10:09 14.3 °C 8.3 °C 1012.1 hPa SW 13 km/h 10.1 km/h 67 % 0 mm
10:10 10.6 °C 8.4 °C 1011.1 hPa SSW 3.2 km/h 4.8 km/h 86 % 0 mm
10:14 14.9 °C 8.1 °C 1012.1 hPa SW 14.8 km/h 11.7 km/h 64 % 0 mm
10:15 10.9 °C 8.4 °C 1011.1 hPa SSW 3.2 km/h 6.4 km/h 85 % 0 mm
10:19 15.1 °C 7.8 °C 1012.1 hPa SSW 24.1 km/h 16.1 km/h 62 % 0 mm
10:20 11.1 °C 8.4 °C 1011.4 hPa SSW 4.8 km/h 9.7 km/h 84 % 0 mm
10:24 15.2 °C 8.2 °C 1012.1 hPa SW 14.5 km/h 13.7 km/h 63 % 0 mm
10:25 11.2 °C 8.4 °C 1011.1 hPa SSW 8 km/h 11.3 km/h 83 % 0 mm
10:29 15.7 °C 8 °C 1012.1 hPa SSW 17.7 km/h 12.2 km/h 60 % 0 mm
10:30 11.6 °C 8.6 °C 1011.4 hPa SSW 9.7 km/h 12.9 km/h 82 % 0 mm
10:34 15.8 °C 7.5 °C 1012.1 hPa SSW 27.8 km/h 19.5 km/h 58 % 0 mm
10:35 11.7 °C 8.6 °C 1011.4 hPa SSW 4.8 km/h 12.9 km/h 81 % 0 mm
10:39 15.4 °C 7.2 °C 1012.1 hPa SW 24.1 km/h 13.4 km/h 58 % 0 mm
10:40 11.8 °C 8.5 °C 1011.4 hPa SSW 4.8 km/h 11.3 km/h 80 % 0 mm
10:44 15.3 °C 7.3 °C 1012.4 hPa SSW 18.5 km/h 11.9 km/h 59 % 0 mm
10:45 12 °C 8.7 °C 1011.7 hPa SSW 3.2 km/h 11.3 km/h 80 % 0 mm
10:49 15.2 °C 7.7 °C 1012.4 hPa SW 20.4 km/h 7.7 km/h 61 % 0 mm
10:50 12.2 °C 8.9 °C 1011.7 hPa SSW 4.8 km/h 6.4 km/h 80 % 0 mm
10:54 15.2 °C 8 °C 1012.4 hPa SSW 18.5 km/h 12.1 km/h 62 % 0 mm
10:55 12.5 °C 8.9 °C 1011.7 hPa SSW 4.8 km/h 6.4 km/h 79 % 0 mm
10:59 15.2 °C 7.5 °C 1012.4 hPa SW 20.4 km/h 10.8 km/h 60 % 0 mm
11:00 12.7 °C 8.7 °C 1011.7 hPa SSW 4.8 km/h 11.3 km/h 77 % 0 mm
11:04 15.4 °C 7.7 °C 1012.4 hPa SW 13 km/h 7.9 km/h 60 % 0 mm
11:05 12.9 °C 9 °C 1011.7 hPa SSW 4.8 km/h 9.7 km/h 77 % 0 mm
11:09 16.1 °C 7.6 °C 1012.4 hPa SW 14.8 km/h 15 km/h 57 % 0 mm
11:10 13.1 °C 8.8 °C 1011.7 hPa SSW 9.7 km/h 14.5 km/h 75 % 0 mm
11:14 16.3 °C 6.9 °C 1012.4 hPa SSW 24.1 km/h 19.6 km/h 54 % 0 mm
11:15 13.2 °C 8.7 °C 1011.7 hPa SSW 8 km/h 11.3 km/h 74 % 0 mm
11:19 15.9 °C 6.8 °C 1012.4 hPa SSW 18.5 km/h 11.6 km/h 55 % 0 mm
11:20 13.3 °C 8.6 °C 1011.7 hPa SSW 8 km/h 16.1 km/h 73 % 0 mm
11:24 16.2 °C 7.2 °C 1012.4 hPa SW 22.2 km/h 13.7 km/h 55 % 0 mm
11:25 13.5 °C 8.6 °C 1011.7 hPa SW 8 km/h 22.5 km/h 72 % 0 mm
11:29 15.9 °C 6.8 °C 1012.4 hPa SSW 18.5 km/h 13.8 km/h 55 % 0 mm
11:30 13.7 °C 8.6 °C 1011.7 hPa SW 12.9 km/h 22.5 km/h 71 % 0 mm
11:34 16.1 °C 6.7 °C 1012.4 hPa SSW 18.5 km/h 13.7 km/h 54 % 0 mm
11:35 13.7 °C 8.3 °C 1011.7 hPa SW 11.3 km/h 24.1 km/h 70 % 0 mm
11:39 16.5 °C 7.2 °C 1012.4 hPa SW 16.1 km/h 11.9 km/h 54 % 0 mm
11:40 13.9 °C 8.8 °C 1011.7 hPa SSW 4.8 km/h 16.1 km/h 71 % 0 mm
11:44 16.4 °C 6.8 °C 1012.4 hPa SSW 29.6 km/h 11.6 km/h 53 % 0 mm
11:45 14.3 °C 8.5 °C 1011.7 hPa SSW 16.1 km/h 24.1 km/h 68 % 0 mm
11:49 16.3 °C 6.9 °C 1012.4 hPa SSW 20.4 km/h 12.6 km/h 54 % 0 mm
11:50 14.3 °C 8.4 °C 1011.7 hPa SSW 11.3 km/h 22.5 km/h 68 % 0 mm
11:54 16.7 °C 7.1 °C 1012.4 hPa SSW 18.5 km/h 5.5 km/h 53 % 0 mm
11:55 14.5 °C 8.4 °C 1011.7 hPa SSW 14.5 km/h 22.5 km/h 67 % 0 mm
11:59 16.6 °C 6.1 °C 1012.4 hPa SW 24.1 km/h 15.6 km/h 50 % 0 mm
12:00 14.7 °C 8.6 °C 1011.7 hPa SSW 9.7 km/h 16.1 km/h 67 % 0 mm
12:04 16.7 °C 7.1 °C 1012.1 hPa SSW 19.3 km/h 7.9 km/h 53 % 0 mm
12:05 14.6 °C 8.1 °C 1012.1 hPa SW 14.5 km/h 32.2 km/h 65 % 0 mm
12:09 16.9 °C 6.9 °C 1012.1 hPa South 24.1 km/h 14 km/h 52 % 0 mm
12:10 14.4 °C 8.1 °C 1012.1 hPa SW 12.9 km/h 19.3 km/h 66 % 0 mm
12:14 16.9 °C 6.7 °C 1012.1 hPa SSW 18.5 km/h 11.4 km/h 51 % 0 mm
12:15 14.4 °C 8.2 °C 1012.1 hPa SW 11.3 km/h 19.3 km/h 66 % 0 mm
12:19 16.9 °C 7 °C 1012.1 hPa South 22.2 km/h 15.9 km/h 52 % 0 mm
12:20 15 °C 7.8 °C 1012.1 hPa SW 16.1 km/h 20.9 km/h 62 % 0 mm
12:24 17.2 °C 6.3 °C 1012.1 hPa South 20.4 km/h 11.3 km/h 49 % 0 mm
12:25 15.1 °C 7.8 °C 1012.1 hPa SW 12.9 km/h 24.1 km/h 62 % 0 mm
12:29 17.1 °C 6.8 °C 1012.1 hPa WSW 22.5 km/h 14.5 km/h 51 % 0 mm
12:30 15.3 °C 8.1 °C 1012.1 hPa SW 12.9 km/h 22.5 km/h 62 % 0 mm
12:34 17.6 °C 7.1 °C 1012.1 hPa WSW 16.7 km/h 8.5 km/h 50 % 0 mm
12:35 15.8 °C 7.8 °C 1012.1 hPa SW 8 km/h 17.7 km/h 59 % 0 mm
12:39 18 °C 7.1 °C 1011.7 hPa SSW 11.1 km/h 4.2 km/h 49 % 0 mm
12:40 15.7 °C 7.4 °C 1012.1 hPa SW 12.9 km/h 29 km/h 58 % 0 mm
12:44 18.2 °C 6.7 °C 1011.7 hPa SSE 16.7 km/h 12.2 km/h 47 % 0 mm
12:45 15.3 °C 7.3 °C 1012.4 hPa SW 9.7 km/h 24.1 km/h 59 % 0 mm
12:49 18.3 °C 6.8 °C 1012.1 hPa SSW 22.2 km/h 17.2 km/h 47 % 0 mm
12:50 15.3 °C 7.3 °C 1012.4 hPa SW 16.1 km/h 22.5 km/h 59 % 0 mm
12:54 18 °C 6.2 °C 1011.7 hPa South 11.1 km/h 8.4 km/h 46 % 0 mm
12:55 15.3 °C 7.8 °C 1012.4 hPa SW 19.3 km/h 27.4 km/h 61 % 0 mm
12:59 18.2 °C 6.7 °C 1012.1 hPa SSW 22.5 km/h 16.9 km/h 47 % 0 mm
13:00 15.2 °C 7.7 °C 1012.4 hPa SW 12.9 km/h 20.9 km/h 61 % 0 mm
13:04 17.9 °C 6.4 °C 1012.1 hPa SW 22.5 km/h 10.3 km/h 47 % 0 mm
13:05 15.3 °C 7.8 °C 1012.4 hPa SW 11.3 km/h 20.9 km/h 61 % 0 mm
13:06 18 °C 6.5 °C 1012.1 hPa SSE 24.1 km/h 12.6 km/h 47 % 0 mm
13:10 15.6 °C 8.1 °C 1012.4 hPa SW 12.9 km/h 25.7 km/h 61 % 0 mm
13:15 16.2 °C 7.4 °C 1012.4 hPa SW 12.9 km/h 22.5 km/h 56 % 0 mm
13:15 18 °C 6.8 °C 1011.7 hPa WSW 16.1 km/h   48 % 0 mm
13:20 16.2 °C 7.1 °C 1012.4 hPa SW 16.1 km/h 25.7 km/h 55 % 0 mm
13:24 18.3 °C 7.1 °C 1011.7 hPa SW 14.8 km/h 12.1 km/h 48 % 0 mm
13:25 16 °C 6.9 °C 1012.4 hPa SW 11.3 km/h 29 km/h 55 % 0 mm
13:30 16.2 °C 6.9 °C 1012.4 hPa SW 19.3 km/h 27.4 km/h 54 % 0 mm
13:35 15.8 °C 6.6 °C 1012.4 hPa SSW 20.9 km/h 29 km/h 54 % 0 mm
13:39 18.6 °C 6.8 °C 1011.7 hPa South 14.8 km/h 9.8 km/h 46 % 0 mm
13:40 16.2 °C 6.6 °C 1012.4 hPa SW 9.7 km/h 25.7 km/h 53 % 0 mm
13:44 18.6 °C 7.3 °C 1012.1 hPa SSW 29.6 km/h 25.4 km/h 48 % 0 mm
13:45 16.6 °C 7.3 °C 1012.4 hPa SSW 12.9 km/h 22.5 km/h 54 % 0 mm
13:49 18.8 °C 6.9 °C 1011.7 hPa SW 25.9 km/h 9.2 km/h 46 % 0 mm
13:50 16.3 °C 6.7 °C 1012.4 hPa SSW 19.3 km/h 29 km/h 53 % 0 mm
13:54 18.8 °C 6.6 °C 1011.7 hPa WSW 31.5 km/h 20.9 km/h 45 % 0 mm
13:55 16.4 °C 7.1 °C 1012.1 hPa SSW 11.3 km/h 22.5 km/h 54 % 0 mm
13:59 18.4 °C 6.6 °C 1011.7 hPa West 22.5 km/h 17.5 km/h 46 % 0 mm
14:00 16.7 °C 7.1 °C 1012.1 hPa SSW 8 km/h 20.9 km/h 53 % 0 mm
14:04 18.5 °C 7.3 °C 1011.7 hPa SW 18.5 km/h 12.2 km/h 48 % 0 mm
14:05 16.5 °C 6.3 °C 1012.4 hPa SSW 8 km/h 27.4 km/h 51 % 0 mm
14:09 19 °C 6.8 °C 1011.7 hPa SW 20.4 km/h 12.7 km/h 45 % 0 mm
14:10 16.8 °C 7.2 °C 1012.1 hPa SSW 11.3 km/h 20.9 km/h 53 % 0 mm
14:14 19.8 °C 6.6 °C 1011.7 hPa West 25.9 km/h 15.6 km/h 42 % 0 mm
14:15 16.9 °C 6.7 °C 1012.1 hPa South 12.9 km/h 30.6 km/h 51 % 0 mm
14:19 19.3 °C 6.4 °C 1011.7 hPa SW 20.4 km/h 11.4 km/h 43 % 0 mm
14:20 16.8 °C 6.6 °C 1012.1 hPa South 9.7 km/h 25.7 km/h 51 % 0 mm
14:24 19.4 °C 6.8 °C 1012.1 hPa WSW 20.9 km/h 15.1 km/h 44 % 0 mm
14:25 17.1 °C 6.9 °C 1012.1 hPa South 14.5 km/h 22.5 km/h 51 % 0 mm
14:29 19.6 °C 6.3 °C 1011.7 hPa West 20.4 km/h 14.3 km/h 42 % 0 mm
14:30 17.1 °C 6.6 °C 1012.1 hPa South 14.5 km/h 22.5 km/h 50 % 0 mm
14:34 19.1 °C 5.8 °C 1012.1 hPa SW 24.1 km/h 16.3 km/h 42 % 0 mm
14:35 17.1 °C 6.3 °C 1012.1 hPa SSW 19.3 km/h 24.1 km/h 49 % 0 mm
14:39 19.3 °C 6.8 °C 1011.7 hPa West 18.5 km/h 11.9 km/h 44 % 0 mm
14:40 17.8 °C 6.6 °C 1012.1 hPa SW 4.8 km/h 25.7 km/h 48 % 0 mm
14:44 19.7 °C 6.4 °C 1011.7 hPa SSW 22.2 km/h 15.8 km/h 42 % 0 mm
14:45 18.1 °C 6.9 °C 1012.1 hPa SW 9.7 km/h 19.3 km/h 48 % 0 mm
14:49 19.6 °C 7.3 °C 1011.7 hPa South 11.1 km/h 9.7 km/h 45 % 0 mm
14:50 18.2 °C 6.7 °C 1011.7 hPa South 11.3 km/h 20.9 km/h 47 % 0 mm
14:54 19.7 °C 6.1 °C 1011.4 hPa West 22.2 km/h 17.7 km/h 41 % 0 mm
14:55 18.2 °C 6.4 °C 1012.1 hPa South 16.1 km/h 24.1 km/h 46 % 0 mm
14:59 19.9 °C 6.2 °C 1011.4 hPa SSW 14.8 km/h 13 km/h 41 % 0 mm
15:00 18.1 °C 6.6 °C 1012.1 hPa SSW 9.7 km/h 20.9 km/h 47 % 0 mm
15:04 19.8 °C 6.5 °C 1011.4 hPa SW 22.2 km/h 16.9 km/h 42 % 0 mm
15:05 18.1 °C 6.6 °C 1012.1 hPa South 16.1 km/h 25.7 km/h 47 % 0 mm
15:09 19.2 °C 6.3 °C 1011.4 hPa SSW 25.7 km/h 15.6 km/h 43 % 0 mm
15:10 17.9 °C 6.8 °C 1012.1 hPa South 12.9 km/h 24.1 km/h 48 % 0 mm
15:14 19.2 °C 7.3 °C 1011.4 hPa South 19.3 km/h 16.4 km/h 46 % 0 mm
15:15 18.1 °C 6.6 °C 1012.1 hPa South 19.3 km/h 25.7 km/h 47 % 0 mm
15:19 19.6 °C 6.7 °C 1011.4 hPa SSW 22.5 km/h 16.6 km/h 43 % 0 mm
15:22 19.4 °C 6.2 °C 1011.4 hPa SSW 27.8 km/h 20.6 km/h 42 % 0 mm
15:25 18.2 °C 6.9 °C 1011.7 hPa SW 16.1 km/h 27.4 km/h 48 % 0 mm
15:30 18.4 °C 6.9 °C 1011.7 hPa WSW 4.8 km/h 16.1 km/h 47 % 0 mm
15:35 19.1 °C 6.8 °C 1011.7 hPa WSW 14.5 km/h 24.1 km/h 45 % 0 mm
15:40 18.8 °C 7.3 °C 1012.1 hPa WSW 11.3 km/h 17.7 km/h 47 % 0 mm
15:45 18.6 °C 7 °C 1011.7 hPa SSW 11.3 km/h 22.5 km/h 47 % 0 mm
15:50 18.7 °C 7.4 °C 1012.1 hPa SSW 14.5 km/h 41.8 km/h 48 % 0 mm
15:55 18.9 °C 7.7 °C 1011.7 hPa SSW 12.9 km/h 29 km/h 48 % 0 mm
16:00 18.8 °C 6.9 °C 1011.7 hPa SW 16.1 km/h 32.2 km/h 46 % 0 mm
16:05 18.3 °C 6.8 °C 1011.7 hPa SW 16.1 km/h 30.6 km/h 47 % 0 mm
16:10 18.7 °C 7.1 °C 1011.7 hPa SW 12.9 km/h 24.1 km/h 47 % 0 mm
16:15 19.2 °C 7.6 °C 1011.7 hPa SW 11.3 km/h 20.9 km/h 47 % 0 mm
16:20 19.7 °C 6.1 °C 1012.1 hPa WSW 22.5 km/h 32.2 km/h 41 % 0 mm
16:25 19.3 °C 6.8 °C 1011.7 hPa WSW 12.9 km/h 22.5 km/h 44 % 0 mm
16:30 19.5 °C 6.6 °C 1011.7 hPa SW 19.3 km/h 22.5 km/h 43 % 0 mm
16:35 19.5 °C 5.9 °C 1011.7 hPa WSW 12.9 km/h 25.7 km/h 41 % 0 mm
16:40 18.9 °C 5.7 °C 1011.7 hPa WSW 14.5 km/h 24.1 km/h 42 % 0 mm
16:45 19.6 °C 7 °C 1011.7 hPa SW 14.5 km/h 22.5 km/h 44 % 0 mm
16:50 19.7 °C 6.7 °C 1011.7 hPa SW 16.1 km/h 22.5 km/h 43 % 0 mm
16:55 19.6 °C 6.7 °C 1011.7 hPa SSW 22.5 km/h 29 km/h 43 % 0 mm
17:00 19.8 °C 6.2 °C 1011.4 hPa SW 19.3 km/h 24.1 km/h 41 % 0 mm
17:05 19.9 °C 6.7 °C 1011.4 hPa WSW 12.9 km/h 27.4 km/h 42 % 0 mm
17:10 19.6 °C 6.7 °C 1011.4 hPa SW 11.3 km/h 22.5 km/h 43 % 0 mm
17:15 19.1 °C 6.2 °C 1011.4 hPa SSW 9.7 km/h 25.7 km/h 43 % 0 mm
17:20 19.3 °C 7.1 °C 1011.4 hPa SSW 9.7 km/h 25.7 km/h 45 % 0 mm
17:25 19.5 °C 6.2 °C 1011.4 hPa SSW 14.5 km/h 25.7 km/h 42 % 0 mm
17:30 19.3 °C 6.1 °C 1011.4 hPa SSW 24.1 km/h 33.8 km/h 42 % 0 mm
17:35 19.3 °C 6.8 °C 1011.4 hPa SSW 12.9 km/h 20.9 km/h 44 % 0 mm
17:40 19.6 °C 7.3 °C 1011.4 hPa SSW 11.3 km/h 22.5 km/h 45 % 0 mm
17:45 19.6 °C 6.7 °C 1011.4 hPa SSW 14.5 km/h 27.4 km/h 43 % 0 mm
17:50 19.4 °C 6.9 °C 1011.4 hPa SSW 19.3 km/h 30.6 km/h 44 % 0 mm
17:55 19.4 °C 7.2 °C 1011.1 hPa SSW 11.3 km/h 22.5 km/h 45 % 0 mm
18:00 19.4 °C 6.8 °C 1011.1 hPa South 19.3 km/h 29 km/h 44 % 0 mm
18:05 19.1 °C 6.9 °C 1011.1 hPa South 12.9 km/h 27.4 km/h 45 % 0 mm
18:10 19.1 °C 6.9 °C 1011.1 hPa SSW 14.5 km/h 29 km/h 45 % 0 mm
18:15 19 °C 6.8 °C 1011.1 hPa SW 16.1 km/h 24.1 km/h 45 % 0 mm
18:20 19.2 °C 6.9 °C 1011.1 hPa SSW 9.7 km/h 30.6 km/h 45 % 0 mm
18:25 19.3 °C 6.7 °C 1011.1 hPa SSW 12.9 km/h 20.9 km/h 44 % 0 mm
21:04 15.4 °C 6.2 °C 1012.8 hPa South 14.8 km/h 11.3 km/h 54 % 0 mm
21:09 15.2 °C 6.2 °C 1012.8 hPa South 14.8 km/h 7.7 km/h 55 % 0 mm
21:14 15 °C 6.3 °C 1013.1 hPa South 14.8 km/h 10.3 km/h 56 % 0 mm
21:24 14.6 °C 6.4 °C 1013.1 hPa South 14.8 km/h 11.1 km/h 58 % 0 mm
21:30 19.2 °C 6 °C 1011.7 hPa SSW 19.3 km/h 29 km/h 42 % 0 mm
21:34 14.2 °C 6.3 °C 1013.4 hPa South 9.3 km/h 5.1 km/h 59 % 0 mm
21:39 14.1 °C 6.4 °C 1013.4 hPa South 9.7 km/h 10.5 km/h 60 % 0 mm
21:44 13.9 °C 6.6 °C 1013.4 hPa South 14.8 km/h 6.8 km/h 61 % 0 mm
21:49 13.8 °C 6.4 °C 1013.8 hPa South 14.8 km/h 7.6 km/h 61 % 0 mm
21:54 13.7 °C 6.5 °C 1013.8 hPa South 9.7 km/h 7.2 km/h 62 % 0 mm
21:59 13.6 °C 6.4 °C 1014.1 hPa South 11.1 km/h 8 km/h 62 % 0 mm
22:04 13.5 °C 6.6 °C 1014.1 hPa South 9.7 km/h 7.9 km/h 63 % 0 mm
22:09 13.4 °C 6.5 °C 1014.1 hPa South 11.1 km/h 8.4 km/h 63 % 0 mm
22:14 13.3 °C 6.6 °C 1014.1 hPa South 11.1 km/h 6 km/h 64 % 0 mm
22:19 13.2 °C 6.6 °C 1014.1 hPa South 11.1 km/h 6.8 km/h 64 % 0 mm
22:24 13.1 °C 6.4 °C 1014.1 hPa South 14.8 km/h 6.8 km/h 64 % 0 mm
22:29 13 °C 6.6 °C 1014.1 hPa South 13 km/h 9 km/h 65 % 0 mm
22:34 12.9 °C 6.4 °C 1014.1 hPa South 7.4 km/h 3.4 km/h 65 % 0 mm
22:39 12.7 °C 6.5 °C 1014.1 hPa South 9.7 km/h 1.9 km/h 66 % 0 mm
22:44 12.6 °C 6.6 °C 1014.1 hPa South 7.4 km/h 6.6 km/h 67 % 0 mm
22:49 12.4 °C 6.5 °C 1014.1 hPa South 6.4 km/h 1.9 km/h 67 % 0 mm
22:54 12.3 °C 6.3 °C 1014.1 hPa South 5.6 km/h 1.6 km/h 67 % 0 mm
22:59 12.2 °C 6.2 °C 1014.1 hPa South 8 km/h 4 km/h 67 % 0 mm
23:04 12.1 °C 6.4 °C 1014.1 hPa South 5.6 km/h 5.3 km/h 68 % 0 mm
23:09 11.9 °C 6.4 °C 1014.4 hPa South 7.4 km/h 4 km/h 69 % 0 mm
23:11 11.9 °C 6.4 °C 1014.1 hPa South 7.4 km/h 2.7 km/h 69 % 0 mm
23:19 11.7 °C 6.4 °C 1014.4 hPa South 5.6 km/h 4.3 km/h 70 % 0 mm
23:24 11.7 °C 6.4 °C 1014.4 hPa South 5.6 km/h 4.2 km/h 70 % 0 mm
23:29 11.6 °C 6.3 °C 1014.1 hPa South 6.4 km/h 5.3 km/h 70 % 0 mm
23:34 11.6 °C 6.3 °C 1014.1 hPa South 7.4 km/h 5.1 km/h 70 % 0 mm
23:39 11.4 °C 6.4 °C 1014.1 hPa South 6.4 km/h 4.8 km/h 71 % 0 mm
23:44 11.4 °C 6.3 °C 1014.1 hPa South 5.6 km/h 1.8 km/h 71 % 0 mm
23:49 11.3 °C 6.3 °C 1014.4 hPa South 7.4 km/h 7.1 km/h 71 % 0 mm
23:54 11.3 °C 6.3 °C 1014.4 hPa South 6.4 km/h 2.4 km/h 71 % 0 mm
23:59 11.3 °C 6.4 °C 1014.4 hPa South 7.4 km/h 4.2 km/h 72 % 0 mm
Ararat Weather
Compliments of Weather Underground - 3.25 mb
Click here to send mail.


ABOUT

Live weather data from Ararat, Victoria, Australia, 3377
Data uploaded from Cumulus every 5 minutes to Weather Underground.
This site then downloads the raw data for formatting and display.
Metric and imperial data can be displayed. Graphs and historical data available.
Includes Sun and Moon times and rain image live from BOM.

Check out Ararat Weather on Facebook, Twitter and Google +

Help support ongoing costs by checking out the ads





Follow @AraratWeather